Time;durP1;ratioP1;P1;durP2;ratioP2;P2;SDS_P1;SDS_P2;PMS_P1;PMS_P2;Temp;Humidity;BMP_temperature;BMP_pressure;BME280_temperature;BME280_humidity;BME280_pressure;Samples;Min_cycle;Max_cycle;Signal;HPM_P1;HPM_P2
2023/01/13 00:00:58;;;;;;;8.43;1.45;;;;;;;8.22;92.39;100351.25;5055537;28;20516;-76
2023/01/13 00:03:24;;;;;;;7.78;1.30;;;;;;;8.16;91.97;100353.09;5055267;28;20120;-77
2023/01/13 00:05:49;;;;;;;6.88;1.45;;;;;;;8.16;92.07;100349.69;5068731;28;20029;-77
2023/01/13 00:08:14;;;;;;;10.85;1.30;;;;;;;8.18;91.53;100340.13;5071118;28;20039;-77
2023/01/13 00:10:39;;;;;;;8.02;1.38;;;;;;;8.17;91.40;100348.78;5056786;28;20032;-77
2023/01/13 00:13:05;;;;;;;10.43;1.10;;;;;;;8.15;91.44;100345.38;5056267;28;20036;-77
2023/01/13 00:15:31;;;;;;;9.23;1.20;;;;;;;8.13;91.57;100341.97;5059820;28;20025;-76
2023/01/13 00:17:56;;;;;;;9.18;1.60;;;;;;;8.08;91.60;100343.81;5071910;28;20476;-77
2023/01/13 00:20:22;;;;;;;8.38;1.55;;;;;;;8.08;90.98;100333.44;5075056;28;20027;-77
2023/01/13 00:22:47;;;;;;;7.53;1.40;;;;;;;8.02;90.52;100327.53;5074284;28;20087;-77
2023/01/13 00:25:12;;;;;;;8.25;1.38;;;;;;;8.00;90.29;100321.53;5054592;28;20040;-77
2023/01/13 00:27:38;;;;;;;7.28;1.27;;;;;;;7.94;90.38;100316.50;5037402;28;20025;-77
2023/01/13 00:30:04;;;;;;;9.68;1.48;;;;;;;7.90;90.54;100309.66;5055550;28;20048;-77
2023/01/13 00:32:30;;;;;;;7.65;1.42;;;;;;;7.84;90.40;100315.84;5043152;28;20024;-77
2023/01/13 00:34:55;;;;;;;10.00;1.83;;;;;;;7.80;90.13;100318.56;5074684;28;20031;-77
2023/01/13 00:37:21;;;;;;;6.10;1.27;;;;;;;7.75;90.22;100308.31;5074848;28;20032;-77
2023/01/13 00:39:46;;;;;;;8.90;1.73;;;;;;;7.73;89.89;100303.16;5074047;28;20020;-77
2023/01/13 00:44:55;;;;;;;9.88;1.80;;;;;;;7.66;89.21;100288.66;5062908;28;20551;-77
2023/01/13 00:47:22;;;;;;;11.77;1.98;;;;;;;7.67;88.75;100297.25;5074686;28;20048;-77
2023/01/13 00:49:47;;;;;;;8.07;1.60;;;;;;;7.64;88.10;100292.13;5053946;28;20043;-76
2023/01/13 00:52:13;;;;;;;8.95;1.40;;;;;;;7.62;88.55;100294.78;5054472;28;20484;-76
2023/01/13 00:54:38;;;;;;;8.13;1.60;;;;;;;7.59;88.16;100292.25;5071328;28;20037;-76
2023/01/13 00:57:03;;;;;;;9.82;1.70;;;;;;;7.55;88.13;100294.06;5061822;28;20039;-76
2023/01/13 00:59:29;;;;;;;10.20;1.35;;;;;;;7.52;88.21;100298.44;5067840;28;20536;-76
2023/01/13 01:01:54;;;;;;;13.27;1.83;;;;;;;7.51;88.23;100292.41;5067352;28;20046;-77
2023/01/13 01:04:19;;;;;;;8.18;1.42;;;;;;;7.48;88.26;100292.47;5072142;28;20048;-77
2023/01/13 01:06:44;;;;;;;10.25;1.60;;;;;;;7.46;88.21;100303.75;5071126;28;20476;-77
2023/01/13 01:09:13;;;;;;;9.55;1.75;;;;;;;7.45;88.30;100313.25;5044069;28;20495;-76
2023/01/13 01:11:39;;;;;;;8.02;1.45;;;;;;;7.43;88.58;100326.22;5063554;28;20017;-76
2023/01/13 01:14:04;;;;;;;10.45;1.75;;;;;;;7.46;88.46;100319.28;5037672;28;20032;-77
2023/01/13 01:16:31;;;;;;;11.55;2.05;;;;;;;7.45;88.49;100323.59;5054340;28;20467;-77
2023/01/13 01:18:58;;;;;;;10.25;1.50;;;;;;;7.43;88.86;100315.88;5070098;28;20025;-77
2023/01/13 01:21:26;;;;;;;9.85;1.92;;;;;;;7.43;88.87;100323.66;5060913;28;20175;-77
2023/01/13 01:23:51;;;;;;;9.68;1.63;;;;;;;7.44;88.88;100325.34;5068286;28;20020;-77
2023/01/13 01:26:22;;;;;;;13.55;1.70;;;;;;;7.46;89.07;100330.47;5059242;28;20082;-76
2023/01/13 01:28:48;;;;;;;6.63;1.40;;;;;;;7.46;89.47;100327.91;5072287;28;20021;-77
2023/01/13 01:31:19;;;;;;;7.63;1.70;;;;;;;7.48;89.27;100325.28;5069845;28;20036;-77
2023/01/13 01:33:47;;;;;;;10.95;1.90;;;;;;;7.50;89.52;100332.13;5066411;28;20079;-77
2023/01/13 01:36:15;;;;;;;10.68;1.80;;;;;;;7.51;89.08;100325.22;5064807;28;20465;-77
2023/01/13 01:38:40;;;;;;;12.88;1.60;;;;;;;7.52;89.12;100324.31;5067330;28;20024;-77
2023/01/13 01:41:06;;;;;;;11.32;1.63;;;;;;;7.52;88.97;100325.19;5053623;28;20054;-77
2023/01/13 01:44:02;;;;;;;14.25;1.60;;;;;;;7.53;88.76;100324.31;5066606;28;20405;-76
2023/01/13 01:46:30;;;;;;;10.90;1.50;;;;;;;7.48;88.65;100315.78;5068547;28;20028;-76
2023/01/13 01:49:02;;;;;;;7.63;1.50;;;;;;;7.51;88.06;100318.31;5068879;28;20024;-77
2023/01/13 01:51:31;;;;;;;12.88;1.90;;;;;;;7.49;88.10;100321.81;5059768;28;20036;-77
2023/01/13 01:53:58;;;;;;;10.40;1.63;;;;;;;7.47;87.62;100321.00;5071388;28;20047;-76
2023/01/13 01:56:24;;;;;;;10.57;2.13;;;;;;;7.44;87.42;100321.91;5067467;28;20035;-76
2023/01/13 01:58:52;;;;;;;11.05;1.42;;;;;;;7.43;87.52;100327.94;5065474;28;20029;-76
2023/01/13 02:01:18;;;;;;;15.25;1.83;;;;;;;7.40;86.66;100315.94;5069383;28;20058;-76
2023/01/13 02:03:51;;;;;;;8.73;1.52;;;;;;;7.38;86.78;100312.53;5071914;28;20491;-76
2023/01/13 02:06:17;;;;;;;11.63;1.77;;;;;;;7.34;86.53;100308.31;5068857;28;20020;-77
2023/01/13 02:08:43;;;;;;;12.65;1.85;;;;;;;7.34;86.11;100305.75;5055972;28;20476;-77
2023/01/13 02:12:28;;;;;;;12.88;2.03;;;;;;;7.33;86.27;100309.22;5060481;28;20037;-76
2023/01/13 02:14:11;;;;;;;12.93;1.90;;;;;;;7.30;85.93;100311.84;5069981;28;20085;-77
2023/01/13 02:16:45;;;;;;;13.93;1.83;;;;;;;7.28;84.78;100305.84;5066577;28;20101;-77
2023/01/13 02:19:41;;;;;;;13.38;1.88;;;;;;;7.26;85.38;100307.63;5063871;28;20021;-76
2023/01/13 02:22:30;;;;;;;12.20;1.83;;;;;;;7.25;84.63;100305.91;5064190;28;20115;-77
2023/01/13 02:25:50;;;;;;;13.35;2.72;;;;;;;7.20;84.85;100298.25;5066344;28;20171;-76
2023/01/13 02:28:27;;;;;;;11.98;1.83;;;;;;;7.14;84.51;100288.88;4993144;28;20106;-76
2023/01/13 02:34:03;;;;;;;20.48;2.58;;;;;;;7.13;83.47;100312.19;5065302;28;20047;-77
2023/01/13 02:36:41;;;;;;;13.73;2.00;;;;;;;7.10;83.89;100318.28;5063091;28;20063;-76
2023/01/13 02:39:14;;;;;;;13.20;2.30;;;;;;;7.07;83.39;100318.34;5049112;28;20020;-76
2023/01/13 02:44:50;;;;;;;15.63;2.58;;;;;;;7.05;83.59;100314.09;5052643;28;20060;-76
2023/01/13 02:47:25;;;;;;;15.88;2.38;;;;;;;7.02;83.74;100308.97;5065970;28;20040;-76
2023/01/13 02:49:59;;;;;;;17.38;2.05;;;;;;;7.03;83.94;100308.94;5059484;28;20052;-76
2023/01/13 02:52:36;;;;;;;17.10;2.42;;;;;;;7.02;84.01;100302.03;5067747;28;20024;-76
2023/01/13 02:55:11;;;;;;;12.45;1.70;;;;;;;7.03;84.15;100296.00;5068509;28;20078;-77
2023/01/13 02:57:39;;;;;;;18.85;2.55;;;;;;;7.04;83.96;100295.13;5060352;28;20097;-76
2023/01/13 03:00:06;;;;;;;15.52;2.10;;;;;;;7.05;84.32;100295.97;5063484;28;20025;-76
2023/01/13 03:02:32;;;;;;;15.30;2.35;;;;;;;7.05;84.44;100296.81;5071552;28;20028;-76
2023/01/13 03:04:59;;;;;;;11.10;2.22;;;;;;;7.07;84.52;100294.22;5061757;28;20037;-76
2023/01/13 03:07:52;;;;;;;16.73;2.10;;;;;;;7.05;84.89;100289.06;5070308;28;20028;-76
2023/01/13 03:10:43;;;;;;;15.88;1.98;;;;;;;7.06;84.93;100283.00;5069524;28;20020;-76
2023/01/13 03:13:14;;;;;;;12.02;2.47;;;;;;;7.08;84.93;100288.16;5051249;28;20024;-77
2023/01/13 03:15:50;;;;;;;14.82;2.33;;;;;;;7.11;84.71;100288.06;5063210;28;20032;-76
2023/01/13 03:18:28;;;;;;;10.00;1.73;;;;;;;7.11;84.71;100277.72;5071208;28;20364;-77
2023/01/13 03:21:04;;;;;;;19.45;2.13;;;;;;;7.13;84.54;100274.25;5065948;28;20538;-76
2023/01/13 03:23:57;;;;;;;11.88;2.05;;;;;;;7.16;84.35;100270.75;5055866;28;20364;-76
2023/01/13 03:26:35;;;;;;;14.70;2.05;;;;;;;7.16;84.05;100255.22;5052703;28;20034;-76
2023/01/13 03:29:17;;;;;;;14.48;1.63;;;;;;;7.18;84.22;100252.59;5058786;28;20468;-76
2023/01/13 03:31:54;;;;;;;10.68;1.85;;;;;;;7.21;83.74;100247.34;5056422;28;20029;-76
2023/01/13 03:34:24;;;;;;;10.75;1.27;;;;;;;7.21;83.67;100258.56;5067771;28;20040;-77
2023/01/13 03:36:53;;;;;;;15.50;2.17;;;;;;;7.20;84.13;100253.41;5055511;28;20029;-76
2023/01/13 03:39:28;;;;;;;9.70;1.58;;;;;;;7.29;83.53;100256.66;5066952;28;20105;-77
2023/01/13 03:41:58;;;;;;;11.85;1.80;;;;;;;7.32;82.89;100276.44;5062668;28;20056;-77
2023/01/13 03:44:32;;;;;;;11.20;1.77;;;;;;;7.35;82.42;100271.19;5069111;28;20020;-76
2023/01/13 03:47:17;;;;;;;10.65;1.50;;;;;;;7.39;81.83;100254.72;5068676;28;20037;-76
2023/01/13 03:50:01;;;;;;;8.45;1.38;;;;;;;7.36;81.25;100262.53;5070133;28;20051;-76
2023/01/13 03:52:38;;;;;;;8.77;1.55;;;;;;;7.38;81.03;100255.59;5054873;28;20036;-76
2023/01/13 03:55:14;;;;;;;7.10;1.10;;;;;;;7.41;79.53;100255.53;5069143;28;20111;-76
2023/01/13 03:57:51;;;;;;;4.57;1.08;;;;;;;7.39;78.87;100253.88;5053580;28;20098;-76
2023/01/13 04:00:18;;;;;;;8.13;1.02;;;;;;;7.36;78.30;100251.34;5057297;28;20028;-76
2023/01/13 04:03:16;;;;;;;6.10;1.13;;;;;;;7.42;78.43;100257.25;5058703;28;20106;-76
2023/01/13 04:05:50;;;;;;;5.90;0.77;;;;;;;7.41;76.43;100244.34;5065727;28;20028;-76
2023/01/13 04:08:22;;;;;;;5.95;0.90;;;;;;;7.42;77.10;100252.06;5059742;28;20029;-77
2023/01/13 04:11:08;;;;;;;6.05;0.95;;;;;;;7.43;76.96;100264.13;5067971;28;20464;-76
2023/01/13 04:13:39;;;;;;;4.55;0.75;;;;;;;7.41;76.66;100260.72;5061596;28;20048;-77
2023/01/13 04:16:06;;;;;;;3.00;0.52;;;;;;;7.46;76.32;100275.28;5061849;28;20032;-76
2023/01/13 04:18:32;;;;;;;4.57;0.75;;;;;;;7.42;76.39;100277.94;5064392;28;20574;-77
2023/01/13 04:20:59;;;;;;;4.90;0.80;;;;;;;7.41;76.69;100288.34;5066250;28;20029;-76
2023/01/13 04:23:26;;;;;;;3.15;0.60;;;;;;;7.40;76.69;100289.22;5057821;28;20028;-77
2023/01/13 04:25:53;;;;;;;2.92;0.60;;;;;;;7.37;77.16;100290.13;5059483;28;20025;-76
2023/01/13 04:28:19;;;;;;;5.13;0.95;;;;;;;7.34;77.44;100300.56;5062878;28;20052;-76
2023/01/13 04:30:44;;;;;;;6.15;0.80;;;;;;;7.30;78.13;100293.75;5067759;28;20510;-77
2023/01/13 04:33:10;;;;;;;3.58;0.70;;;;;;;7.27;78.52;100293.81;5064314;28;20035;-76
2023/01/13 04:35:36;;;;;;;4.18;0.57;;;;;;;7.21;79.36;100286.16;5058135;28;20032;-76
2023/01/13 04:38:08;;;;;;;5.75;1.45;;;;;;;7.22;79.85;100301.66;5064971;28;20028;-77
2023/01/13 04:40:33;;;;;;;9.38;1.05;;;;;;;7.24;80.50;100307.66;5065138;28;20111;-76
2023/01/13 04:42:59;;;;;;;6.50;1.45;;;;;;;7.21;80.78;100304.25;5063771;28;20103;-76
2023/01/13 04:45:24;;;;;;;8.88;1.00;;;;;;;7.21;80.88;100305.13;5063233;28;20511;-76
2023/01/13 04:47:50;;;;;;;7.65;1.00;;;;;;;7.16;81.87;100293.19;5064963;28;20081;-76
2023/01/13 04:50:19;;;;;;;5.65;1.20;;;;;;;7.17;81.68;100297.47;5069708;28;20051;-76
2023/01/13 04:52:45;;;;;;;5.72;1.02;;;;;;;7.14;81.88;100299.25;5063300;28;20619;-76
2023/01/13 04:55:11;;;;;;;5.57;1.10;;;;;;;7.13;82.42;100292.34;5070653;28;20087;-76
2023/01/13 04:57:36;;;;;;;6.53;1.20;;;;;;;7.08;82.97;100299.34;5072331;28;20025;-77
2023/01/13 05:00:06;;;;;;;10.75;1.20;;;;;;;7.06;82.76;100288.19;5059706;28;20459;-77
2023/01/13 05:02:31;;;;;;;7.88;1.40;;;;;;;7.01;83.47;100276.22;5065291;28;20032;-76
2023/01/13 05:04:57;;;;;;;7.85;1.35;;;;;;;7.02;83.08;100286.53;5057843;28;20067;-77
2023/01/13 05:07:22;;;;;;;6.07;1.48;;;;;;;6.94;83.65;100276.34;5062525;28;20029;-76
2023/01/13 05:09:48;;;;;;;8.50;1.40;;;;;;;6.93;83.74;100291.91;5069273;28;20503;-76
2023/01/13 05:17:41;;;;;;;9.98;1.77;;;;;;;6.86;83.92;100267.91;5071112;28;20107;-76
2023/01/13 05:20:07;;;;;;;11.82;1.67;;;;;;;6.83;84.09;100255.84;5072245;28;20066;-76
2023/01/13 05:25:26;;;;;;;9.05;1.27;;;;;;;6.78;83.93;100283.56;5065353;28;20356;-76
2023/01/13 05:27:54;;;;;;;6.45;1.23;;;;;;;6.81;84.20;100265.41;5054357;28;20031;-76
2023/01/13 05:30:22;;;;;;;8.18;1.52;;;;;;;6.77;84.69;100276.69;5069110;28;20032;-76
2023/01/13 05:32:48;;;;;;;9.93;1.30;;;;;;;6.75;84.81;100291.38;5053731;28;20036;-76
2023/01/13 05:35:14;;;;;;;10.45;1.35;;;;;;;6.76;84.81;100271.53;5053595;28;20037;-76
2023/01/13 05:37:41;;;;;;;7.18;1.38;;;;;;;6.73;84.56;100290.53;5053749;28;20028;-76
2023/01/13 05:43:23;;;;;;;9.30;1.30;;;;;;;6.71;84.68;100302.63;5068019;28;20039;-76
2023/01/13 05:45:51;;;;;;;5.50;1.15;;;;;;;6.74;84.52;100300.00;5070452;28;20442;-76
2023/01/13 05:48:18;;;;;;;4.85;1.10;;;;;;;6.76;84.42;100297.38;5055148;28;20048;-76
2023/01/13 05:50:44;;;;;;;9.70;1.25;;;;;;;6.77;84.38;100305.13;5051342;28;20032;-76
2023/01/13 05:53:10;;;;;;;12.38;1.52;;;;;;;6.74;84.35;100307.75;5044955;28;20032;-76
2023/01/13 05:55:39;;;;;;;7.05;1.52;;;;;;;6.75;84.41;100313.75;5069933;28;20082;-77
2023/01/13 05:58:09;;;;;;;6.07;1.25;;;;;;;6.72;84.17;100317.28;5057545;28;20036;-77
2023/01/13 06:00:34;;;;;;;9.13;1.80;;;;;;;6.71;84.00;100323.31;5067549;28;20522;-76
2023/01/13 06:03:00;;;;;;;7.88;1.23;;;;;;;6.68;84.31;100328.53;5062622;28;20475;-77
2023/01/13 06:05:26;;;;;;;9.57;1.35;;;;;;;6.68;83.97;100320.78;5062908;28;20040;-77
2023/01/13 06:07:55;;;;;;;6.53;1.10;;;;;;;6.64;84.26;100324.31;5066665;28;20020;-76
2023/01/13 06:10:20;;;;;;;4.63;1.25;;;;;;;6.63;84.13;100317.44;5064932;28;20024;-77
2023/01/13 06:12:46;;;;;;;7.00;1.30;;;;;;;6.60;84.25;100322.66;5062888;28;20537;-77
2023/01/13 06:15:11;;;;;;;7.97;1.17;;;;;;;6.57;84.29;100328.75;5068916;28;20028;-77
2023/01/13 06:17:36;;;;;;;10.20;1.05;;;;;;;6.56;84.00;100324.47;5062238;28;20472;-77
2023/01/13 06:20:01;;;;;;;12.43;1.90;;;;;;;6.55;84.28;100329.63;5059897;28;20025;-77
2023/01/13 06:22:31;;;;;;;6.70;1.30;;;;;;;6.55;83.78;100320.16;5060735;28;20025;-77
2023/01/13 06:24:57;;;;;;;8.95;1.13;;;;;;;6.57;83.58;100328.75;5055918;28;20455;-77
2023/01/13 06:27:23;;;;;;;8.13;1.17;;;;;;;6.52;83.47;100328.81;5060501;28;20064;-77
2023/01/13 06:29:48;;;;;;;8.85;1.73;;;;;;;6.52;83.51;100328.81;5062545;28;20272;-76
2023/01/13 06:32:18;;;;;;;7.90;1.42;;;;;;;6.48;83.53;100327.19;5067465;28;20028;-76
2023/01/13 06:34:51;;;;;;;8.18;0.95;;;;;;;6.47;83.66;100324.59;5044255;28;20393;-77
2023/01/13 06:37:20;;;;;;;11.90;1.42;;;;;;;6.48;83.30;100323.72;5052952;28;20029;-76
2023/01/13 06:39:46;;;;;;;9.30;1.98;;;;;;;6.45;83.49;100332.41;5034471;28;20035;-77
2023/01/13 06:44:56;;;;;;;6.00;1.30;;;;;;;6.43;83.42;100334.16;5071690;28;20051;-77
2023/01/13 06:47:21;;;;;;;10.98;1.30;;;;;;;6.41;83.59;100340.19;5070998;28;20430;-77
2023/01/13 06:49:47;;;;;;;8.75;1.17;;;;;;;6.42;83.44;100339.31;5072266;28;20020;-77
2023/01/13 06:52:13;;;;;;;8.93;1.45;;;;;;;6.41;83.16;100342.78;5071409;28;20105;-76
2023/01/13 06:54:38;;;;;;;6.20;1.25;;;;;;;6.36;83.42;100336.00;5056810;28;20033;-77
2023/01/13 06:57:04;;;;;;;11.32;1.42;;;;;;;6.38;83.71;100331.66;5072064;28;20036;-77
2023/01/13 06:59:29;;;;;;;8.00;1.45;;;;;;;6.35;83.39;100331.69;5072187;28;20031;-77
2023/01/13 07:01:54;;;;;;;9.82;1.42;;;;;;;6.33;83.34;100317.06;5059753;28;20032;-77
2023/01/13 07:04:20;;;;;;;11.20;1.48;;;;;;;6.34;83.28;100327.41;5052026;28;20403;-77
2023/01/13 07:06:45;;;;;;;12.63;1.70;;;;;;;6.32;83.32;100333.47;5051785;28;20071;-77
2023/01/13 07:09:11;;;;;;;9.50;1.40;;;;;;;6.34;82.77;100336.88;5052499;28;20028;-77
2023/01/13 07:11:36;;;;;;;9.40;1.40;;;;;;;6.33;82.90;100340.31;5060692;28;20020;-76
2023/01/13 07:16:45;;;;;;;8.70;1.42;;;;;;;6.43;82.32;100334.16;5071771;28;20097;-77
2023/01/13 07:19:10;;;;;;;7.65;1.25;;;;;;;6.43;81.88;100334.16;5070915;28;20029;-77
2023/01/13 07:21:36;;;;;;;8.88;1.65;;;;;;;6.44;81.80;100342.75;5058549;28;20041;-77
2023/01/13 07:24:01;;;;;;;8.48;1.50;;;;;;;6.45;81.53;100345.31;5054658;28;20025;-77
2023/01/13 07:26:26;;;;;;;11.30;1.58;;;;;;;6.45;81.65;100350.47;5057581;28;20067;-77
2023/01/13 07:28:52;;;;;;;9.45;1.38;;;;;;;6.42;81.54;100347.06;5033938;28;20036;-76
2023/01/13 07:31:22;;;;;;;8.13;1.45;;;;;;;6.41;81.60;100343.66;5056093;28;20404;-76
2023/01/13 07:33:47;;;;;;;11.70;1.40;;;;;;;6.43;81.37;100348.78;5052692;28;20029;-77
2023/01/13 07:36:13;;;;;;;14.35;1.70;;;;;;;6.43;80.83;100341.03;5051682;28;20087;-77
2023/01/13 07:38:39;;;;;;;12.40;1.65;;;;;;;6.45;80.24;100353.06;5051939;28;20025;-76
2023/01/13 07:43:50;;;;;;;8.57;1.30;;;;;;;6.42;80.29;100350.53;5054112;28;20030;-76
2023/01/13 07:46:16;;;;;;;13.57;1.50;;;;;;;6.41;80.04;100351.41;5052488;28;20083;-76
2023/01/13 07:48:41;;;;;;;6.03;1.30;;;;;;;6.41;80.12;100366.91;5051462;28;20064;-77
2023/01/13 07:51:09;;;;;;;9.57;1.50;;;;;;;6.40;80.03;100365.19;5056067;28;20065;-77
2023/01/13 07:53:35;;;;;;;7.50;1.35;;;;;;;6.36;80.28;100371.28;5051594;28;20055;-76
2023/01/13 07:56:02;;;;;;;7.95;1.50;;;;;;;6.37;80.26;100360.94;5059216;28;20530;-77
2023/01/13 07:58:28;;;;;;;9.77;1.27;;;;;;;6.43;79.53;100383.25;5057705;28;20533;-77
2023/01/13 08:00:54;;;;;;;7.95;1.30;;;;;;;6.45;79.40;100371.16;5041805;28;20703;-77
2023/01/13 08:03:20;;;;;;;6.85;1.50;;;;;;;6.45;79.14;100378.91;5053737;28;20028;-77
2023/01/13 08:05:46;;;;;;;10.50;1.60;;;;;;;6.45;78.97;100391.81;5051315;28;20020;-76
2023/01/13 08:08:11;;;;;;;5.70;1.27;;;;;;;6.46;79.03;100372.88;5055477;28;20056;-76
2023/01/13 08:10:37;;;;;;;12.88;1.90;;;;;;;6.45;79.73;100378.03;5066773;28;20064;-76
2023/01/13 08:13:18;;;;;;;11.55;1.88;;;;;;;6.42;79.94;100378.94;5052285;28;20036;-77
2023/01/13 08:15:45;;;;;;;12.80;1.70;;;;;;;6.44;79.65;100384.09;5051556;28;20024;-77
2023/01/13 08:18:10;;;;;;;10.10;1.65;;;;;;;6.48;79.24;100394.38;5066397;28;20039;-77
2023/01/13 08:20:36;;;;;;;6.90;1.27;;;;;;;6.50;79.41;100392.59;5060836;28;20028;-78
2023/01/13 08:23:01;;;;;;;9.50;1.52;;;;;;;6.51;79.48;100407.22;5058952;28;20017;-78
2023/01/13 08:25:28;;;;;;;8.27;1.30;;;;;;;6.50;79.85;100410.69;5060248;28;20016;-78
2023/01/13 08:27:54;;;;;;;7.70;1.30;;;;;;;6.52;79.48;100403.75;5065674;28;20036;-77
2023/01/13 08:30:20;;;;;;;9.75;1.45;;;;;;;6.52;79.73;100402.91;5058267;28;20039;-77
2023/01/13 08:32:47;;;;;;;12.00;1.77;;;;;;;6.57;79.79;100405.41;5062014;28;20029;-78
2023/01/13 08:35:12;;;;;;;8.13;1.27;;;;;;;6.58;79.82;100402.81;5059801;28;20085;-78
2023/01/13 08:37:38;;;;;;;10.43;1.38;;;;;;;6.55;79.79;100402.00;5068801;28;20037;-78
2023/01/13 08:40:04;;;;;;;9.68;1.50;;;;;;;6.57;79.90;100408.00;5058228;28;20043;-77
2023/01/13 08:42:30;;;;;;;14.30;1.52;;;;;;;6.56;80.35;100414.06;5072020;28;20036;-78
2023/01/13 08:44:56;;;;;;;9.55;1.52;;;;;;;6.60;80.20;100416.56;5054159;28;20031;-78
2023/01/13 08:47:21;;;;;;;12.60;1.70;;;;;;;6.62;80.31;100412.22;5073861;28;20351;-78
2023/01/13 08:49:46;;;;;;;11.30;1.58;;;;;;;6.66;80.54;100420.78;5057852;28;20511;-77
2023/01/13 08:52:12;;;;;;;11.07;1.73;;;;;;;6.69;80.03;100410.38;5055665;28;20021;-77
2023/01/13 08:54:38;;;;;;;12.82;1.65;;;;;;;6.72;80.22;100406.91;5074184;28;20502;-77
2023/01/13 08:57:03;;;;;;;9.57;1.90;;;;;;;6.73;80.32;100416.38;5068112;28;20021;-79
2023/01/13 08:59:29;;;;;;;10.55;1.45;;;;;;;6.76;79.86;100412.00;5064820;28;20032;-78
2023/01/13 09:01:54;;;;;;;13.05;2.00;;;;;;;6.82;79.75;100418.78;5060146;28;20029;-79
2023/01/13 09:04:22;;;;;;;12.68;2.13;;;;;;;6.83;79.80;100411.00;5072156;28;20125;-78
2023/01/13 09:06:49;;;;;;;13.13;2.15;;;;;;;6.92;79.38;100417.75;5070232;28;20032;-77
2023/01/13 09:09:14;;;;;;;13.93;2.10;;;;;;;6.98;78.67;100411.63;5054121;28;20040;-77
2023/01/13 09:14:30;;;;;;;11.15;1.60;;;;;;;6.97;79.05;100404.75;5054132;28;20442;-77
2023/01/13 09:16:56;;;;;;;9.80;1.75;;;;;;;7.02;79.14;100409.84;5054066;28;20033;-77
2023/01/13 09:19:21;;;;;;;7.93;1.80;;;;;;;7.08;79.03;100401.97;5066503;28;20031;-77
2023/01/13 09:21:47;;;;;;;13.55;1.67;;;;;;;7.22;78.64;100414.63;5061901;28;20025;-76
2023/01/13 09:24:12;;;;;;;12.82;1.65;;;;;;;7.32;78.07;100416.19;5057365;28;20044;-77
2023/01/13 09:26:37;;;;;;;14.10;1.88;;;;;;;7.42;77.07;100427.22;5060703;28;20115;-77
2023/01/13 09:29:03;;;;;;;12.07;2.00;;;;;;;7.49;77.48;100422.75;5063282;28;20025;-78
2023/01/13 09:31:28;;;;;;;9.20;1.48;;;;;;;7.55;77.21;100435.56;5069561;28;20020;-77
2023/01/13 09:36:37;;;;;;;8.68;1.40;;;;;;;7.67;76.84;100447.41;5054984;28;20159;-77
2023/01/13 09:39:05;;;;;;;11.00;1.75;;;;;;;7.71;76.29;100449.91;5058719;28;20099;-78
2023/01/13 09:44:45;;;;;;;10.38;1.60;;;;;;;7.71;76.21;100456.84;5053609;28;20032;-76
2023/01/13 09:47:19;;;;;;;10.27;1.98;;;;;;;7.68;76.52;100475.88;5071573;28;20115;-77
2023/01/13 09:49:45;;;;;;;16.58;2.15;;;;;;;7.65;76.10;100470.75;5059122;28;20037;-76
2023/01/13 09:52:19;;;;;;;9.90;2.00;;;;;;;7.66;76.33;100482.81;5065339;28;20024;-77
2023/01/13 09:54:52;;;;;;;15.43;1.75;;;;;;;7.69;76.21;100490.50;5054803;28;20111;-77
2023/01/13 09:57:19;;;;;;;14.70;2.58;;;;;;;7.66;77.15;100497.50;5065528;28;20025;-77
2023/01/13 09:59:44;;;;;;;14.68;2.00;;;;;;;7.62;77.11;100486.34;5056631;28;20546;-77
2023/01/13 10:02:28;;;;;;;15.63;2.20;;;;;;;7.63;76.62;100503.59;5066316;28;20042;-78
2023/01/13 10:05:04;;;;;;;18.63;2.33;;;;;;;7.51;78.09;100488.31;5068028;28;20043;-77
2023/01/13 10:07:33;;;;;;;11.52;2.83;;;;;;;7.43;78.38;100497.06;5073043;28;20031;-76
2023/01/13 10:10:01;;;;;;;10.80;2.25;;;;;;;7.41;78.65;100487.63;5070363;28;20468;-77
2023/01/13 10:15:20;;;;;;;15.98;1.75;;;;;;;7.45;78.36;100502.19;5058845;28;20460;-78
2023/01/13 10:18:11;;;;;;;13.15;2.05;;;;;;;7.47;78.26;100495.25;5058994;28;20101;-77
2023/01/13 10:21:21;;;;;;;14.77;2.58;;;;;;;7.57;78.29;100503.69;5054604;28;20047;-77
2023/01/13 10:24:04;;;;;;;15.88;2.40;;;;;;;7.61;78.43;100505.34;5053446;28;20124;-77
2023/01/13 10:26:43;;;;;;;18.55;3.25;;;;;;;7.54;79.50;100498.56;5057382;28;20047;-77
2023/01/13 10:29:26;;;;;;;16.00;2.38;;;;;;;7.50;79.81;100491.78;5052488;28;20068;-77
2023/01/13 10:31:56;;;;;;;13.98;2.28;;;;;;;7.41;80.70;100504.00;5053748;28;20060;-78
2023/01/13 10:34:25;;;;;;;13.73;1.95;;;;;;;7.37;81.50;100502.31;5062203;28;20029;-78
2023/01/13 10:36:55;;;;;;;16.77;2.13;;;;;;;7.33;82.43;100505.88;5064127;28;20032;-78
2023/01/13 10:39:21;;;;;;;15.93;2.55;;;;;;;7.31;82.69;100507.63;5060632;28;20044;-78
2023/01/13 10:41:46;;;;;;;9.30;2.00;;;;;;;7.28;82.31;100507.69;5057422;28;20033;-77
2023/01/13 10:44:16;;;;;;;10.38;1.75;;;;;;;7.26;82.74;100519.78;5053623;28;20557;-77
2023/01/13 10:46:54;;;;;;;20.88;2.40;;;;;;;7.22;83.01;100533.66;5059299;28;20498;-77
2023/01/13 10:49:36;;;;;;;12.98;2.53;;;;;;;7.20;83.07;100525.06;5060278;28;20032;-77
2023/01/13 10:52:03;;;;;;;;;;;;;;;7.21;82.60;100542.28;5056462;28;20037;-77
2023/01/13 10:54:29;;;;;;;13.52;2.25;;;;;;;7.16;83.40;100534.59;5054056;28;20061;-77
2023/01/13 10:57:18;;;;;;;9.13;1.75;;;;;;;7.14;83.16;100547.59;5059418;28;20039;-78
2023/01/13 10:59:43;;;;;;;12.90;2.13;;;;;;;7.13;83.45;100543.28;5060150;28;20068;-77
2023/01/13 11:02:17;;;;;;;11.75;2.00;;;;;;;7.11;83.95;100542.44;5061682;28;20055;-77
2023/01/13 11:04:54;;;;;;;16.02;2.50;;;;;;;7.17;84.02;100544.09;5057812;28;20139;-77
2023/01/13 11:07:34;;;;;;;9.52;2.05;;;;;;;7.21;83.64;100545.75;5059427;28;20111;-77
2023/01/13 11:10:26;;;;;;;16.83;2.70;;;;;;;7.19;83.76;100549.22;5059494;28;20028;-77
2023/01/13 11:13:13;;;;;;;8.20;1.90;;;;;;;7.19;84.05;100550.09;5061744;28;20055;-78
2023/01/13 11:16:09;;;;;;;13.18;2.35;;;;;;;7.21;83.83;100550.91;5058753;28;20463;-77
2023/01/13 11:18:42;;;;;;;14.57;2.25;;;;;;;7.22;84.06;100550.03;5058650;28;20463;-77
2023/01/13 11:21:23;;;;;;;12.32;2.40;;;;;;;7.24;84.15;100550.00;5045374;28;20231;-77
2023/01/13 11:24:05;;;;;;;10.45;2.35;;;;;;;7.22;83.91;100551.75;5061193;28;20460;-77
2023/01/13 11:26:42;;;;;;;12.48;2.22;;;;;;;7.27;83.35;100557.72;5060408;28;20024;-77
2023/01/13 11:29:26;;;;;;;10.35;2.00;;;;;;;7.30;83.11;100560.25;5056539;28;20645;-78
2023/01/13 11:32:00;;;;;;;12.65;2.10;;;;;;;7.33;82.44;100561.94;5057691;28;21046;-76
2023/01/13 11:34:35;;;;;;;12.23;1.85;;;;;;;7.36;82.33;100560.13;5053598;28;20039;-77
2023/01/13 11:37:08;;;;;;;12.25;1.95;;;;;;;7.38;81.96;100555.78;5051273;28;20025;-77
2023/01/13 11:39:55;;;;;;;11.05;2.63;;;;;;;7.39;81.87;100560.09;5051593;28;20037;-78
2023/01/13 11:42:28;;;;;;;12.45;2.00;;;;;;;7.37;81.79;100556.66;5034046;28;20082;-77
2023/01/13 11:45:19;;;;;;;17.35;2.75;;;;;;;7.37;81.72;100564.44;5060859;28;20031;-77
2023/01/13 11:47:47;;;;;;;11.45;2.05;;;;;;;7.36;81.31;100578.25;5059140;28;20082;-77
2023/01/13 11:50:22;;;;;;;12.75;2.17;;;;;;;7.37;80.52;100573.94;5058995;28;20017;-78
2023/01/13 11:53:10;;;;;;;13.10;2.28;;;;;;;7.36;80.93;100573.06;5058836;28;20025;-76
2023/01/13 11:56:03;;;;;;;12.27;2.03;;;;;;;7.43;80.94;100585.06;5066183;28;20483;-77
2023/01/13 11:59:07;;;;;;;10.52;1.85;;;;;;;7.50;80.94;100574.59;5068074;28;20101;-78
2023/01/13 12:02:29;;;;;;;13.80;2.10;;;;;;;7.53;80.71;100593.50;5054628;28;20090;-78
2023/01/13 12:04:57;;;;;;;;;;;;;;;7.64;79.88;100595.06;5004296;28;20084;-78
2023/01/13 12:07:55;;;;;;;12.57;1.90;;;;;;;7.60;79.73;100586.50;4997860;28;19925;-78
2023/01/13 12:10:41;;;;;;;11.05;1.75;;;;;;;7.58;79.74;100594.31;5048572;28;20170;-77
2023/01/13 12:13:09;;;;;;;14.05;1.70;;;;;;;7.56;79.31;100595.19;5065081;28;20032;-77
2023/01/13 12:15:47;;;;;;;10.38;1.60;;;;;;;7.55;79.97;100603.84;5065914;28;20028;-77
2023/01/13 12:18:35;;;;;;;9.25;1.60;;;;;;;7.58;79.41;100608.97;5060950;28;20032;-77
2023/01/13 12:21:24;;;;;;;13.10;2.08;;;;;;;7.57;79.17;100615.03;5066883;28;20025;-77
2023/01/13 12:24:05;;;;;;;12.77;2.00;;;;;;;7.57;79.17;100617.59;5063105;28;20027;-77
2023/01/13 12:26:35;;;;;;;15.50;2.30;;;;;;;7.57;78.58;100613.31;5064691;28;20027;-78